createdAt,value
2019-04-16T00:00:57.992Z,30.45
2019-04-16T00:03:04.740Z,32.13
2019-04-16T00:05:11.283Z,24.67
2019-04-16T00:07:33.909Z,26.27
2019-04-16T00:09:52.654Z,26.62
2019-04-16T00:12:16.996Z,21.85
2019-04-16T00:14:28.265Z,24.80
2019-04-16T00:16:35.005Z,22.37
2019-04-16T00:18:41.742Z,25.17
2019-04-16T00:21:06.506Z,32.00
2019-04-16T00:23:19.242Z,22.75
2019-04-16T00:25:26.010Z,21.80
2019-04-16T00:27:32.840Z,26.02
2019-04-16T00:29:39.974Z,25.25
2019-04-16T00:31:48.324Z,25.62
2019-04-16T00:33:55.101Z,28.60
2019-04-16T00:36:01.840Z,19.30
2019-04-16T00:38:08.632Z,20.15
2019-04-16T00:40:15.419Z,19.37
2019-04-16T00:42:22.168Z,17.82
2019-04-16T00:44:29.017Z,20.77
2019-04-16T00:46:35.784Z,15.93
2019-04-16T00:48:42.439Z,17.87
2019-04-16T00:50:49.117Z,21.60
2019-04-16T00:52:56.021Z,17.00
2019-04-16T00:55:02.752Z,20.05
2019-04-16T00:57:09.494Z,20.45
2019-04-16T00:59:16.269Z,19.73
2019-04-16T01:01:22.944Z,18.25
2019-04-16T01:03:29.689Z,19.75
2019-04-16T01:05:36.500Z,19.65
2019-04-16T01:07:43.152Z,23.30
2019-04-16T01:09:49.820Z,24.37
2019-04-16T01:11:56.699Z,24.23
2019-04-16T01:14:04.705Z,24.50
2019-04-16T01:16:11.455Z,25.88
2019-04-16T01:18:18.437Z,24.52
2019-04-16T01:20:25.992Z,19.25
2019-04-16T01:22:32.726Z,24.27
2019-04-16T01:24:39.773Z,22.27
2019-04-16T01:26:46.515Z,26.37
2019-04-16T01:28:54.831Z,19.40
2019-04-16T01:31:17.459Z,22.07
2019-04-16T01:33:25.764Z,21.65
2019-04-16T01:35:51.497Z,23.47
2019-04-16T01:38:16.433Z,21.12
2019-04-16T01:40:24.795Z,25.32
2019-04-16T01:42:33.506Z,22.65
2019-04-16T01:44:40.285Z,16.52
2019-04-16T01:46:47.010Z,21.93
2019-04-16T01:48:53.683Z,19.48
2019-04-16T01:51:00.482Z,18.02
2019-04-16T01:53:07.219Z,20.90
2019-04-16T01:55:13.959Z,22.40
2019-04-16T01:57:20.823Z,18.80
2019-04-16T01:59:27.948Z,16.60
2019-04-16T02:01:34.855Z,19.05
2019-04-16T02:03:41.663Z,15.98
2019-04-16T02:05:48.372Z,21.52
2019-04-16T02:07:56.381Z,17.60
2019-04-16T02:10:07.338Z,17.05
2019-04-16T02:12:13.517Z,16.57
2019-04-16T02:14:22.364Z,14.20
2019-04-16T02:16:29.740Z,15.10
2019-04-16T02:18:36.506Z,14.15
2019-04-16T02:20:43.258Z,16.52
2019-04-16T02:22:49.966Z,17.25
2019-04-16T02:24:56.706Z,17.07
2019-04-16T02:27:03.462Z,14.73
2019-04-16T02:29:10.547Z,16.23
2019-04-16T02:31:17.285Z,12.95
2019-04-16T02:33:23.940Z,19.00
2019-04-16T02:35:30.840Z,19.23
2019-04-16T02:37:37.809Z,15.95
2019-04-16T02:39:48.975Z,17.57
2019-04-16T02:41:57.090Z,20.57
2019-04-16T02:44:01.563Z,16.55
2019-04-16T02:46:08.331Z,16.80
2019-04-16T02:48:17.055Z,14.30
2019-04-16T02:50:40.239Z,16.67
2019-04-16T02:52:51.190Z,14.33
2019-04-16T02:55:14.710Z,18.80
2019-04-16T02:57:31.910Z,17.98
2019-04-16T02:59:45.929Z,17.87
2019-04-16T03:01:51.895Z,14.35
2019-04-16T03:04:03.645Z,16.80
2019-04-16T03:06:10.346Z,17.23
2019-04-16T03:08:17.082Z,15.48
2019-04-16T03:10:24.055Z,20.77
2019-04-16T03:12:30.934Z,23.38
2019-04-16T03:14:37.713Z,15.32
2019-04-16T03:16:46.021Z,14.45
2019-04-16T03:19:00.475Z,12.58
2019-04-16T03:21:07.242Z,13.62
2019-04-16T03:23:15.090Z,13.38
2019-04-16T03:25:21.800Z,16.73
2019-04-16T03:27:28.515Z,14.55
2019-04-16T03:29:35.202Z,20.05
2019-04-16T03:31:41.849Z,20.45
2019-04-16T03:33:50.898Z,18.62
2019-04-16T03:35:57.927Z,23.50
2019-04-16T03:38:06.255Z,27.73
2019-04-16T03:40:17.367Z,28.75
2019-04-16T03:42:24.501Z,25.60
2019-04-16T03:44:30.157Z,30.65
2019-04-16T03:46:39.967Z,30.08
2019-04-16T03:48:45.691Z,27.55
2019-04-16T03:50:52.408Z,29.67
2019-04-16T03:52:59.185Z,28.98
2019-04-16T03:55:06.525Z,25.15
2019-04-16T03:57:13.255Z,21.93
2019-04-16T03:59:20.086Z,18.87
2019-04-16T04:01:26.812Z,22.02
2019-04-16T04:03:33.585Z,18.82
2019-04-16T04:05:40.352Z,20.27
2019-04-16T04:07:47.085Z,19.98
2019-04-16T04:09:54.578Z,23.05
2019-04-16T04:12:02.246Z,19.77
2019-04-16T04:14:08.914Z,15.70
2019-04-16T04:16:15.674Z,18.67
2019-04-16T04:18:23.921Z,25.15
2019-04-16T04:20:31.098Z,28.47
2019-04-16T04:22:37.784Z,18.67
2019-04-16T04:24:44.484Z,25.05
2019-04-16T04:26:51.139Z,22.60
2019-04-16T04:29:25.925Z,19.82
2019-04-16T04:31:33.119Z,21.77
2019-04-16T04:33:42.556Z,18.12
2019-04-16T04:35:51.013Z,17.00
2019-04-16T04:37:56.714Z,19.20
2019-04-16T04:40:03.672Z,17.82
2019-04-16T04:42:10.416Z,14.13
2019-04-16T04:44:17.261Z,25.60
2019-04-16T04:46:24.020Z,14.45
2019-04-16T04:48:30.759Z,12.93
2019-04-16T04:50:37.611Z,18.02
2019-04-16T04:52:46.003Z,17.45
2019-04-16T04:54:54.125Z,25.12
2019-04-16T04:57:01.126Z,20.43
2019-04-16T04:59:07.882Z,20.95
2019-04-16T05:01:15.558Z,20.70
2019-04-16T05:03:40.072Z,21.55
2019-04-16T05:05:53.299Z,17.48
2019-04-16T05:08:00.634Z,19.50
2019-04-16T05:10:08.542Z,28.98
2019-04-16T05:12:17.867Z,22.87
2019-04-16T05:14:25.947Z,23.25
2019-04-16T05:18:41.970Z,21.50
2019-04-16T05:20:49.422Z,21.05
2019-04-16T05:22:57.999Z,21.48
2019-04-16T05:25:06.973Z,22.25
2019-04-16T05:27:13.656Z,20.35
2019-04-16T05:29:20.425Z,21.40
2019-04-16T05:31:30.914Z,20.50
2019-04-16T05:35:44.440Z,19.12
2019-04-16T05:37:52.223Z,16.77
2019-04-16T05:39:59.543Z,19.45
2019-04-16T05:42:06.512Z,13.72
2019-04-16T05:44:13.143Z,18.85
2019-04-16T05:46:19.796Z,17.05
2019-04-16T05:48:26.423Z,17.20
2019-04-16T05:50:33.161Z,16.97
2019-04-16T05:52:39.885Z,17.35
2019-04-16T05:54:51.401Z,19.50
2019-04-16T05:57:02.410Z,17.30
2019-04-16T05:59:09.239Z,15.30
2019-04-16T06:01:23.519Z,29.10
2019-04-16T06:03:30.187Z,18.62
2019-04-16T06:05:36.926Z,15.63
2019-04-16T06:07:43.627Z,16.17
2019-04-16T06:09:50.297Z,15.98
2019-04-16T06:11:56.978Z,19.62
2019-04-16T06:14:17.522Z,17.05
2019-04-16T06:16:36.307Z,8.88
2019-04-16T06:18:56.623Z,10.63
2019-04-16T06:21:25.035Z,14.10
2019-04-16T06:23:32.665Z,9.50
2019-04-16T06:25:42.236Z,12.43
2019-04-16T06:27:53.230Z,18.85
2019-04-16T06:30:16.819Z,9.65
2019-04-16T06:32:27.830Z,10.70
2019-04-16T06:34:51.421Z,14.87
2019-04-16T06:37:20.335Z,6.60
2019-04-16T06:39:38.408Z,10.78
2019-04-16T06:41:47.788Z,8.60
2019-04-16T06:43:58.344Z,7.30
2019-04-16T06:46:20.939Z,10.78
2019-04-16T06:48:46.006Z,8.30
2019-04-16T06:51:12.485Z,6.50
2019-04-16T06:53:23.822Z,10.50
2019-04-16T06:55:35.013Z,11.88
2019-04-16T06:57:44.630Z,7.90
2019-04-16T07:00:02.315Z,5.05
2019-04-16T07:02:12.050Z,8.15
2019-04-16T07:04:20.356Z,4.42
2019-04-16T07:06:43.536Z,4.58
2019-04-16T07:08:53.254Z,5.62
2019-04-16T07:11:01.611Z,7.87
2019-04-16T07:13:11.136Z,4.40
2019-04-16T07:15:22.089Z,8.35
2019-04-16T07:17:25.055Z,5.22
2019-04-16T07:19:31.725Z,15.28
2019-04-16T07:21:38.492Z,6.53
2019-04-16T07:23:47.091Z,5.97
2019-04-16T07:25:54.242Z,5.40
2019-04-16T07:28:08.810Z,5.50
2019-04-16T07:30:21.243Z,7.47
2019-04-16T07:32:32.696Z,14.00
2019-04-16T07:34:43.774Z,7.85
2019-04-16T07:36:56.638Z,5.78
2019-04-16T07:39:28.762Z,4.40
2019-04-16T07:41:23.572Z,6.00
2019-04-16T07:43:48.212Z,9.15
2019-04-16T07:46:05.930Z,10.38
2019-04-16T07:48:22.921Z,10.03
2019-04-16T07:50:46.250Z,7.10
2019-04-16T07:53:00.307Z,5.05
2019-04-16T07:55:17.910Z,5.72
2019-04-16T07:57:24.565Z,6.75
2019-04-16T07:59:32.230Z,7.97
2019-04-16T08:01:40.906Z,10.72
2019-04-16T08:03:47.555Z,5.85
2019-04-16T08:05:54.216Z,7.25
2019-04-16T08:08:00.991Z,6.03
2019-04-16T08:10:08.432Z,5.95
2019-04-16T08:12:29.261Z,7.78
2019-04-16T08:14:23.518Z,6.90
2019-04-16T08:16:30.283Z,4.78
2019-04-16T08:18:38.587Z,8.75
2019-04-16T08:20:45.352Z,7.67
2019-04-16T08:22:53.673Z,5.72
2019-04-16T08:25:03.272Z,10.20
2019-04-16T08:27:10.927Z,4.42
2019-04-16T08:29:17.735Z,7.12
2019-04-16T08:31:25.876Z,17.82
2019-04-16T08:33:32.586Z,6.20
2019-04-16T08:35:39.257Z,5.58
2019-04-16T08:37:49.128Z,4.97
2019-04-16T08:39:54.434Z,8.63
2019-04-16T08:42:01.138Z,5.15
2019-04-16T08:44:10.050Z,5.60
2019-04-16T08:46:16.275Z,7.22
2019-04-16T08:48:22.967Z,4.55
2019-04-16T08:50:29.638Z,5.83
2019-04-16T08:52:38.601Z,7.70
2019-04-16T08:54:49.963Z,5.20
2019-04-16T08:56:53.216Z,5.67
2019-04-16T08:59:01.212Z,6.20
2019-04-16T09:01:09.993Z,5.80
2019-04-16T09:03:16.705Z,16.25
2019-04-16T09:05:23.402Z,10.13
2019-04-16T09:07:42.522Z,4.95
2019-04-16T09:09:57.112Z,9.60
2019-04-16T09:12:08.002Z,5.42
2019-04-16T09:14:12.518Z,10.68
2019-04-16T09:16:19.259Z,5.65
2019-04-16T09:18:27.593Z,12.90
2019-04-16T09:20:37.755Z,5.92
2019-04-16T09:22:49.364Z,12.75
2019-04-16T09:24:57.017Z,4.40
2019-04-16T09:27:21.404Z,12.85
2019-04-16T09:29:43.111Z,8.05
2019-04-16T09:31:55.429Z,7.05
2019-04-16T09:34:19.450Z,5.85
2019-04-16T09:36:43.895Z,10.55
2019-04-16T09:38:52.234Z,15.43
2019-04-16T09:41:15.718Z,6.12
2019-04-16T09:43:33.058Z,7.85
2019-04-16T09:45:40.029Z,7.87
2019-04-16T09:47:46.695Z,6.67
2019-04-16T09:49:53.470Z,6.90
2019-04-16T09:52:00.231Z,13.68
2019-04-16T09:54:12.440Z,6.08
2019-04-16T09:56:31.355Z,6.58
2019-04-16T09:58:42.423Z,7.95
2019-04-16T10:00:48.985Z,4.20
2019-04-16T10:02:57.296Z,4.50
2019-04-16T10:05:05.369Z,10.28
2019-04-16T10:07:12.616Z,6.45
2019-04-16T10:09:21.711Z,6.58
2019-04-16T10:11:27.973Z,4.62
2019-04-16T10:13:36.275Z,7.28
2019-04-16T10:15:44.269Z,6.25
2019-04-16T10:17:50.972Z,6.53
2019-04-16T10:19:58.210Z,6.62
2019-04-16T10:22:04.897Z,5.85
2019-04-16T10:24:14.310Z,22.42
2019-04-16T10:26:21.403Z,9.85
2019-04-16T10:28:33.890Z,6.33
2019-04-16T10:30:42.868Z,10.25
2019-04-16T10:32:49.833Z,7.62
2019-04-16T10:34:56.497Z,7.42
2019-04-16T10:37:03.208Z,5.42
2019-04-16T10:39:09.733Z,3.92
2019-04-16T10:41:25.263Z,8.35
2019-04-16T10:43:49.912Z,9.73
2019-04-16T10:45:59.207Z,22.50
2019-04-16T10:48:19.680Z,10.88
2019-04-16T10:50:46.388Z,4.83
2019-04-16T10:53:03.773Z,16.45
2019-04-16T10:55:25.293Z,9.93
2019-04-16T10:57:38.481Z,20.50
2019-04-16T11:00:02.306Z,5.72
2019-04-16T11:02:10.861Z,7.30
2019-04-16T11:04:34.508Z,6.50
2019-04-16T11:06:48.696Z,8.05
2019-04-16T11:08:55.393Z,6.20
2019-04-16T11:11:04.845Z,12.68
2019-04-16T11:13:16.113Z,10.18
2019-04-16T11:15:24.480Z,5.78
2019-04-16T11:17:31.235Z,10.13
2019-04-16T11:19:37.979Z,14.13
2019-04-16T11:21:44.653Z,6.35
2019-04-16T11:23:51.366Z,7.42
2019-04-16T11:25:58.010Z,12.70
2019-04-16T11:28:04.676Z,7.50
2019-04-16T11:30:30.151Z,19.12
2019-04-16T11:32:39.938Z,6.08
2019-04-16T11:34:45.339Z,6.17
2019-04-16T11:36:52.110Z,14.93
2019-04-16T11:38:58.770Z,8.50
2019-04-16T11:41:05.508Z,9.13
2019-04-16T11:43:12.219Z,6.55
2019-04-16T11:45:20.299Z,12.37
2019-04-16T11:47:28.179Z,8.65
2019-04-16T11:49:35.240Z,21.87
2019-04-16T11:51:41.978Z,10.68
2019-04-16T11:53:48.658Z,12.68
2019-04-16T11:55:55.441Z,11.88
2019-04-16T11:58:03.220Z,8.83
2019-04-16T12:00:15.356Z,9.50
2019-04-16T12:02:23.689Z,5.90
2019-04-16T12:04:30.199Z,4.75
2019-04-16T12:06:47.789Z,6.90
2019-04-16T12:09:12.251Z,13.65
2019-04-16T12:11:26.806Z,7.42
2019-04-16T12:13:41.734Z,5.87
2019-04-16T12:16:02.280Z,14.40
2019-04-16T12:18:22.981Z,16.62
2019-04-16T12:20:44.644Z,9.30
2019-04-16T12:22:56.981Z,11.55
2019-04-16T12:25:08.973Z,8.73
2019-04-16T12:27:17.240Z,5.97
2019-04-16T12:29:31.635Z,13.40
2019-04-16T12:31:49.176Z,6.90
2019-04-16T12:34:13.744Z,16.48
2019-04-16T12:36:38.340Z,9.08
2019-04-16T12:38:58.694Z,10.63
2019-04-16T12:41:20.446Z,10.25
2019-04-16T12:43:35.591Z,10.72
2019-04-16T12:45:53.552Z,7.87
2019-04-16T12:48:02.145Z,6.85
2019-04-16T12:50:17.451Z,10.13
2019-04-16T12:52:43.140Z,7.53
2019-04-16T12:54:58.349Z,9.05
2019-04-16T12:57:20.989Z,10.82
2019-04-16T12:59:29.374Z,12.63
2019-04-16T13:01:50.105Z,15.63
2019-04-16T13:04:01.567Z,10.13
2019-04-16T13:06:07.982Z,11.53
2019-04-16T13:08:17.135Z,13.83
2019-04-16T13:12:32.835Z,11.55
2019-04-16T13:15:01.033Z,17.20
2019-04-16T13:17:09.856Z,10.40
2019-04-16T13:19:34.455Z,17.67
2019-04-16T13:21:43.766Z,15.53
2019-04-16T13:23:54.821Z,11.33
2019-04-16T13:26:11.893Z,13.88
2019-04-16T13:28:15.770Z,14.03
2019-04-16T13:30:22.468Z,10.68
2019-04-16T13:32:29.077Z,15.72
2019-04-16T13:34:35.736Z,16.67
2019-04-16T13:36:42.366Z,12.45
2019-04-16T13:38:51.899Z,15.30
2019-04-16T13:41:01.690Z,13.88
2019-04-16T13:43:08.457Z,10.82
2019-04-16T13:45:25.619Z,15.63
2019-04-16T13:47:27.895Z,21.12
2019-04-16T13:49:38.911Z,16.10
2019-04-16T13:51:47.806Z,13.95
2019-04-16T13:54:13.846Z,13.53
2019-04-16T13:56:27.858Z,15.35
2019-04-16T13:58:38.748Z,15.15
2019-04-16T14:00:47.061Z,15.38
2019-04-16T14:02:55.384Z,15.85
2019-04-16T14:05:04.276Z,18.65
2019-04-16T14:07:10.423Z,15.60
2019-04-16T14:09:17.113Z,46.02
2019-04-16T14:11:23.790Z,22.58
2019-04-16T14:13:30.459Z,15.58
2019-04-16T14:15:40.369Z,18.48
2019-04-16T14:17:52.793Z,16.07
2019-04-16T14:19:54.255Z,24.35
2019-04-16T14:22:01.056Z,25.85
2019-04-16T14:24:07.742Z,20.20
2019-04-16T14:26:14.399Z,16.10
2019-04-16T14:28:21.597Z,18.62
2019-04-16T14:30:29.908Z,16.70
2019-04-16T14:32:36.609Z,21.12
2019-04-16T14:34:44.879Z,23.65
2019-04-16T14:36:53.114Z,19.07
2019-04-16T14:39:06.825Z,23.02
2019-04-16T14:41:15.917Z,21.77
2019-04-16T14:43:22.797Z,15.70
2019-04-16T14:45:56.613Z,16.67
2019-04-16T14:47:48.444Z,21.42
2019-04-16T14:49:55.106Z,29.05
2019-04-16T14:52:03.321Z,19.20
2019-04-16T14:54:27.959Z,20.90
2019-04-16T14:56:36.364Z,13.80
2019-04-16T14:58:46.194Z,18.10
2019-04-16T15:00:55.913Z,22.98
2019-04-16T15:03:04.218Z,19.32
2019-04-16T15:05:28.806Z,22.95
2019-04-16T15:07:37.086Z,20.05
2019-04-16T15:09:48.330Z,18.57
2019-04-16T15:12:11.975Z,19.48
2019-04-16T15:14:20.372Z,24.55
2019-04-16T15:16:31.331Z,24.32
2019-04-16T15:18:56.023Z,20.72
2019-04-16T15:21:16.380Z,16.62
2019-04-16T15:23:41.038Z,20.52
2019-04-16T15:25:47.482Z,22.35
2019-04-16T15:27:59.917Z,18.55
2019-04-16T15:30:28.562Z,15.98
2019-04-16T15:32:41.704Z,20.82
2019-04-16T15:34:50.566Z,23.45
2019-04-16T15:37:08.063Z,20.40
2019-04-16T15:39:16.392Z,18.37
2019-04-16T15:41:24.734Z,19.07
2019-04-16T15:43:34.163Z,19.67
2019-04-16T15:45:59.016Z,17.90
2019-04-16T15:48:14.834Z,28.35
2019-04-16T15:50:22.483Z,26.30
2019-04-16T15:52:46.043Z,29.05
2019-04-16T15:55:09.094Z,34.45
2019-04-16T15:57:18.499Z,35.25
2019-04-16T15:59:35.947Z,30.85
2019-04-16T16:01:56.798Z,21.17
2019-04-16T16:04:14.072Z,31.17
2019-04-16T16:06:25.168Z,25.85
2019-04-16T16:08:48.815Z,23.32
2019-04-16T16:10:58.231Z,24.15
2019-04-16T16:13:05.001Z,29.32
2019-04-16T16:15:12.001Z,25.72
2019-04-16T16:17:19.450Z,26.65
2019-04-16T16:19:27.113Z,30.75
2019-04-16T16:21:33.896Z,33.40
2019-04-16T16:23:40.566Z,27.20
2019-04-16T16:25:50.347Z,28.15
2019-04-16T16:27:57.056Z,20.62
2019-04-16T16:30:03.994Z,37.00
2019-04-16T16:32:11.890Z,31.47
2019-04-16T16:34:18.658Z,31.48
2019-04-16T16:36:25.288Z,25.10
2019-04-16T16:38:31.969Z,23.02
2019-04-16T16:40:38.597Z,25.60
2019-04-16T16:42:45.273Z,27.55
2019-04-16T16:44:51.947Z,32.65
2019-04-16T16:47:03.257Z,30.08
2019-04-16T16:49:09.967Z,31.42
2019-04-16T16:51:16.704Z,27.35
2019-04-16T16:53:41.225Z,29.75
2019-04-16T16:55:49.598Z,29.63
2019-04-16T16:58:17.976Z,26.52
2019-04-16T17:00:29.100Z,30.45
2019-04-16T17:02:38.378Z,25.48
2019-04-16T17:04:46.691Z,25.05
2019-04-16T17:06:53.383Z,31.87
2019-04-16T17:09:00.154Z,39.00
2019-04-16T17:11:16.758Z,49.58
2019-04-16T17:13:20.822Z,51.88
2019-04-16T17:15:25.335Z,47.58
2019-04-16T17:17:31.995Z,38.55
2019-04-16T17:19:38.701Z,34.03
2019-04-16T17:21:45.372Z,36.95
2019-04-16T17:23:52.047Z,30.60
2019-04-16T17:25:59.055Z,27.67
2019-04-16T17:28:05.852Z,28.67
2019-04-16T17:30:15.881Z,30.23
2019-04-16T17:32:23.051Z,30.88
2019-04-16T17:34:29.724Z,29.63
2019-04-16T17:36:36.408Z,25.45
2019-04-16T17:38:43.131Z,28.32
2019-04-16T17:41:00.071Z,27.93
2019-04-16T17:43:13.928Z,29.72
2019-04-16T17:45:26.750Z,32.53
2019-04-16T17:47:51.213Z,28.62
2019-04-16T17:50:02.478Z,30.77
2019-04-16T17:52:09.576Z,38.60
2019-04-16T17:54:37.748Z,29.75
2019-04-16T17:56:54.638Z,30.45
2019-04-16T17:59:03.648Z,23.25
2019-04-16T18:01:23.860Z,21.35
2019-04-16T18:03:38.653Z,24.50
2019-04-16T18:05:59.237Z,23.10
2019-04-16T18:08:09.340Z,21.05
2019-04-16T18:10:15.750Z,21.35
2019-04-16T18:12:39.259Z,25.82
2019-04-16T18:14:59.887Z,24.02
2019-04-16T18:17:27.603Z,21.60
2019-04-16T18:19:52.708Z,22.40
2019-04-16T18:22:11.177Z,19.90
2019-04-16T18:24:17.609Z,22.35
2019-04-16T18:26:36.223Z,23.92
2019-04-16T18:28:50.738Z,19.77
2019-04-16T18:30:59.323Z,23.15
2019-04-16T18:33:08.911Z,23.52
2019-04-16T18:35:24.501Z,25.75
2019-04-16T18:37:32.806Z,24.15
2019-04-16T18:39:45.184Z,30.05
2019-04-16T18:41:56.240Z,28.52
2019-04-16T18:44:11.762Z,24.27
2019-04-16T18:46:30.212Z,30.02
2019-04-16T18:48:44.301Z,29.27
2019-04-16T18:50:47.645Z,28.17
2019-04-16T18:52:55.823Z,26.57
2019-04-16T18:55:02.811Z,30.20
2019-04-16T18:57:10.791Z,27.73
2019-04-16T18:59:18.610Z,27.60
2019-04-16T19:01:32.655Z,30.92
2019-04-16T19:03:38.938Z,29.42
2019-04-16T19:05:45.699Z,25.10
2019-04-16T19:07:52.538Z,26.45
2019-04-16T19:09:59.221Z,28.45
2019-04-16T19:12:05.932Z,35.43
2019-04-16T19:14:13.862Z,32.58
2019-04-16T19:16:20.953Z,34.13
2019-04-16T19:18:27.694Z,34.33
2019-04-16T19:20:34.381Z,34.05
2019-04-16T19:22:41.067Z,35.15
2019-04-16T19:24:47.919Z,39.42
2019-04-16T19:26:54.586Z,37.40
2019-04-16T19:29:01.252Z,38.42
2019-04-16T19:31:09.717Z,32.88
2019-04-16T19:33:16.417Z,34.00
2019-04-16T19:35:23.181Z,30.75
2019-04-16T19:37:33.157Z,29.25
2019-04-16T19:39:39.639Z,30.23
2019-04-16T19:41:48.118Z,29.45
2019-04-16T19:43:54.989Z,33.10
2019-04-16T19:46:07.879Z,33.38
2019-04-16T19:48:17.693Z,33.30
2019-04-16T19:50:33.269Z,31.60
2019-04-16T19:52:38.958Z,29.75
2019-04-16T19:54:46.799Z,29.98
2019-04-16T19:56:57.685Z,34.58
2019-04-16T19:59:06.228Z,29.02
2019-04-16T20:01:14.612Z,30.92
2019-04-16T20:03:30.165Z,31.57
2019-04-16T20:05:34.986Z,34.20
2019-04-16T20:07:41.831Z,32.20
2019-04-16T20:09:48.821Z,29.25
2019-04-16T20:11:57.614Z,39.42
2019-04-16T20:14:06.620Z,29.85
2019-04-16T20:16:15.345Z,32.08
2019-04-16T20:18:24.981Z,30.92
2019-04-16T20:20:32.577Z,30.77
2019-04-16T20:22:39.349Z,32.60
2019-04-16T20:24:47.910Z,30.80
2019-04-16T20:26:55.059Z,32.55
2019-04-16T20:29:01.928Z,32.67
2019-04-16T20:31:08.981Z,31.75
2019-04-16T20:33:16.794Z,38.33
2019-04-16T20:35:25.039Z,33.50
2019-04-16T20:37:32.112Z,32.30
2019-04-16T20:39:40.748Z,38.55
2019-04-16T20:41:52.746Z,40.75
2019-04-16T20:43:59.449Z,39.85
2019-04-16T20:46:06.474Z,38.25
2019-04-16T20:48:13.295Z,42.73
2019-04-16T20:50:21.637Z,46.75
2019-04-16T20:52:30.861Z,44.60
2019-04-16T20:54:37.676Z,44.38
2019-04-16T20:59:03.481Z,40.40
2019-04-16T21:01:07.456Z,36.55
2019-04-16T21:03:22.434Z,41.55
2019-04-16T21:05:28.978Z,36.28
2019-04-16T21:07:36.149Z,38.90
2019-04-16T21:09:44.933Z,43.00
2019-04-16T21:11:52.817Z,41.73
2019-04-16T21:14:01.440Z,45.07
2019-04-16T21:16:08.165Z,38.55
2019-04-16T21:18:16.735Z,41.35
2019-04-16T21:20:24.513Z,41.45
2019-04-16T21:22:31.254Z,44.05
2019-04-16T21:24:39.367Z,41.40
2019-04-16T21:26:50.982Z,44.65
2019-04-16T21:29:14.611Z,41.58
2019-04-16T21:31:38.420Z,35.30
2019-04-16T21:34:03.004Z,35.80
2019-04-16T21:36:25.112Z,38.73
2019-04-16T21:38:34.551Z,37.73
2019-04-16T21:40:41.274Z,30.72
2019-04-16T21:42:48.010Z,32.93
2019-04-16T21:44:54.681Z,34.63
2019-04-16T21:47:01.463Z,35.95
2019-04-16T21:49:08.951Z,31.37
2019-04-16T21:51:18.997Z,31.02
2019-04-16T21:53:24.632Z,33.95
2019-04-16T21:55:32.757Z,38.05
2019-04-16T21:57:42.774Z,43.83
2019-04-16T21:59:50.369Z,41.55
2019-04-16T22:01:57.905Z,39.58
2019-04-16T22:04:06.868Z,38.30
2019-04-16T22:06:13.636Z,37.10
2019-04-16T22:08:20.301Z,38.83
2019-04-16T22:10:26.989Z,35.70
2019-04-16T22:12:33.763Z,26.97
2019-04-16T22:14:40.436Z,30.82
2019-04-16T22:16:47.123Z,27.95
2019-04-16T22:18:53.835Z,29.12
2019-04-16T22:21:00.578Z,30.25
2019-04-16T22:23:07.253Z,31.90
2019-04-16T22:25:14.019Z,32.88
2019-04-16T22:27:20.715Z,32.73
2019-04-16T22:29:27.407Z,26.17
2019-04-16T22:31:34.178Z,31.52
2019-04-16T22:33:40.845Z,28.70
2019-04-16T22:35:47.507Z,33.48
2019-04-16T22:37:54.228Z,30.25
2019-04-16T22:40:22.522Z,31.48
2019-04-16T22:42:30.603Z,31.25
2019-04-16T22:44:56.466Z,27.00
2019-04-16T22:47:06.879Z,23.80
2019-04-16T22:49:13.622Z,30.25
2019-04-16T22:51:20.312Z,27.07
2019-04-16T22:53:27.124Z,26.42
2019-04-16T22:55:33.797Z,26.55
2019-04-16T22:57:40.514Z,27.48
2019-04-16T22:59:47.191Z,26.05
2019-04-16T23:01:53.937Z,25.48
2019-04-16T23:04:00.704Z,23.77
2019-04-16T23:06:08.185Z,23.40
2019-04-16T23:08:14.983Z,25.43
2019-04-16T23:10:21.911Z,28.07
2019-04-16T23:12:29.677Z,22.30
2019-04-16T23:14:36.406Z,24.40
2019-04-16T23:16:43.172Z,23.55
2019-04-16T23:18:50.104Z,28.38
2019-04-16T23:20:57.302Z,21.40
2019-04-16T23:23:04.234Z,25.00
2019-04-16T23:25:11.152Z,22.48
2019-04-16T23:27:17.822Z,25.45
2019-04-16T23:29:24.467Z,23.32
2019-04-16T23:31:32.323Z,20.27
2019-04-16T23:33:39.295Z,21.75
2019-04-16T23:35:46.577Z,21.45
2019-04-16T23:37:58.304Z,18.92
2019-04-16T23:40:01.652Z,21.87
2019-04-16T23:42:08.324Z,21.82
2019-04-16T23:44:27.320Z,23.15
2019-04-16T23:46:51.964Z,20.72
2019-04-16T23:49:00.311Z,20.30
2019-04-16T23:51:09.423Z,19.85
2019-04-16T23:53:17.737Z,22.55
2019-04-16T23:55:42.145Z,17.85
2019-04-16T23:57:50.457Z,19.70
